createdAt,value
2019-02-15T00:02:00.353Z,8.80
2019-02-15T00:04:28.397Z,6.97
2019-02-15T00:06:56.416Z,9.23
2019-02-15T00:09:27.098Z,6.87
2019-02-15T00:11:55.147Z,10.57
2019-02-15T00:14:24.261Z,8.87
2019-02-15T00:16:54.786Z,6.80
2019-02-15T00:19:34.111Z,13.27
2019-02-15T00:22:07.285Z,9.47
2019-02-15T00:24:35.683Z,9.00
2019-02-15T00:27:03.783Z,5.73
2019-02-15T00:29:31.755Z,8.40
2019-02-15T00:31:59.718Z,11.13
2019-02-15T00:34:29.144Z,10.17
2019-02-15T00:36:59.392Z,8.40
2019-02-15T00:39:29.952Z,7.50
2019-02-15T00:41:57.985Z,8.87
2019-02-15T00:44:26.129Z,10.30
2019-02-15T00:47:12.460Z,12.40
2019-02-15T00:49:48.965Z,10.67
2019-02-15T00:52:23.355Z,9.93
2019-02-15T00:55:09.028Z,6.87
2019-02-15T00:58:01.925Z,11.30
2019-02-15T01:01:01.133Z,9.80
2019-02-15T01:03:46.797Z,9.33
2019-02-15T01:06:45.808Z,9.20
2019-02-15T01:09:44.663Z,10.07
2019-02-15T01:12:22.537Z,9.20
2019-02-15T01:14:50.489Z,8.90
2019-02-15T01:17:18.546Z,9.23
2019-02-15T01:19:46.630Z,13.80
2019-02-15T01:22:14.632Z,12.13
2019-02-15T01:24:42.653Z,13.20
2019-02-15T01:27:35.243Z,9.27
2019-02-15T01:30:15.597Z,9.60
2019-02-15T01:32:58.120Z,8.20
2019-02-15T01:35:33.743Z,8.50
2019-02-15T01:38:10.383Z,10.10
2019-02-15T01:41:15.507Z,10.63
2019-02-15T01:43:57.321Z,10.53
2019-02-15T01:46:54.171Z,9.27
2019-02-15T01:49:22.261Z,12.77
2019-02-15T01:51:52.919Z,9.23
2019-02-15T01:54:20.966Z,10.40
2019-02-15T01:56:50.192Z,11.23
2019-02-15T01:59:18.094Z,7.80
2019-02-15T02:01:47.876Z,13.17
2019-02-15T02:04:15.843Z,9.23
2019-02-15T02:06:43.912Z,11.73
2019-02-15T02:09:11.891Z,11.43
2019-02-15T02:11:40.052Z,10.93
2019-02-15T02:14:08.027Z,11.73
2019-02-15T02:16:36.028Z,12.97
2019-02-15T02:19:04.067Z,15.70
2019-02-15T02:21:35.022Z,12.83
2019-02-15T02:24:04.241Z,10.53
2019-02-15T02:26:32.551Z,10.70
2019-02-15T02:29:00.499Z,8.57
2019-02-15T02:31:28.528Z,10.90
2019-02-15T02:33:56.579Z,11.67
2019-02-15T02:36:42.244Z,12.37
2019-02-15T02:39:10.231Z,11.70
2019-02-15T02:41:38.303Z,10.23
2019-02-15T02:44:06.349Z,11.70
2019-02-15T02:46:36.849Z,12.07
2019-02-15T02:49:04.947Z,12.00
2019-02-15T02:51:34.888Z,11.83
2019-02-15T02:54:02.908Z,14.23
2019-02-15T02:56:32.075Z,13.30
2019-02-15T02:59:00.141Z,8.63
2019-02-15T03:01:28.280Z,13.07
2019-02-15T03:03:57.397Z,14.53
2019-02-15T03:06:25.419Z,9.07
2019-02-15T03:08:53.498Z,14.77
2019-02-15T03:11:21.572Z,13.93
2019-02-15T03:13:49.642Z,13.43
2019-02-15T03:16:17.735Z,10.07
2019-02-15T03:18:45.736Z,15.40
2019-02-15T03:21:13.824Z,15.53
2019-02-15T03:23:41.942Z,9.27
2019-02-15T03:26:09.999Z,10.17
2019-02-15T03:28:38.124Z,13.17
2019-02-15T03:31:06.121Z,13.07
2019-02-15T03:33:34.552Z,13.93
2019-02-15T03:36:04.433Z,15.20
2019-02-15T03:39:00.437Z,15.13
2019-02-15T03:41:30.054Z,9.17
2019-02-15T03:43:58.201Z,12.50
2019-02-15T03:46:26.327Z,13.73
2019-02-15T03:48:55.388Z,11.23
2019-02-15T03:51:23.600Z,12.50
2019-02-15T03:53:51.613Z,14.63
2019-02-15T03:56:19.691Z,12.40
2019-02-15T03:58:47.672Z,10.10
2019-02-15T04:01:15.705Z,14.93
2019-02-15T04:03:46.859Z,13.03
2019-02-15T04:06:14.958Z,9.90
2019-02-15T04:08:42.937Z,13.00
2019-02-15T04:11:10.935Z,19.23
2019-02-15T04:13:38.952Z,10.77
2019-02-15T04:16:12.449Z,10.00
2019-02-15T04:18:40.471Z,9.63
2019-02-15T04:21:08.580Z,17.20
2019-02-15T04:23:36.639Z,13.33
2019-02-15T04:26:04.592Z,14.23
2019-02-15T04:28:32.959Z,11.97
2019-02-15T04:31:00.965Z,10.07
2019-02-15T04:33:29.058Z,13.60
2019-02-15T04:35:57.070Z,12.37
2019-02-15T04:38:25.163Z,13.50
2019-02-15T04:40:53.306Z,11.43
2019-02-15T04:43:21.345Z,10.67
2019-02-15T04:45:49.451Z,13.03
2019-02-15T04:48:17.488Z,10.63
2019-02-15T04:50:45.537Z,11.73
2019-02-15T04:53:16.007Z,9.47
2019-02-15T04:55:44.117Z,11.57
2019-02-15T04:58:12.211Z,12.53
2019-02-15T05:00:40.285Z,14.30
2019-02-15T05:03:08.406Z,10.93
2019-02-15T05:05:36.547Z,14.13
2019-02-15T05:08:04.626Z,8.57
2019-02-15T05:10:36.952Z,12.90
2019-02-15T05:13:04.963Z,12.77
2019-02-15T05:15:33.672Z,10.10
2019-02-15T05:18:03.780Z,12.13
2019-02-15T05:20:38.513Z,12.67
2019-02-15T05:23:06.621Z,11.37
2019-02-15T05:25:34.577Z,10.00
2019-02-15T05:28:02.647Z,10.90
2019-02-15T05:30:30.741Z,11.07
2019-02-15T05:32:58.780Z,11.60
2019-02-15T05:35:26.760Z,12.03
2019-02-15T05:37:54.768Z,10.77
2019-02-15T05:40:22.840Z,10.37
2019-02-15T05:42:50.796Z,8.73
2019-02-15T05:45:18.913Z,9.43
2019-02-15T05:47:46.965Z,10.33
2019-02-15T05:50:15.135Z,12.60
2019-02-15T05:52:44.660Z,10.37
2019-02-15T05:55:12.802Z,12.67
2019-02-15T05:57:40.905Z,6.73
2019-02-15T06:00:09.266Z,8.63
2019-02-15T06:02:39.668Z,7.97
2019-02-15T06:05:08.121Z,9.50
2019-02-15T06:07:36.144Z,8.17
2019-02-15T06:10:04.366Z,11.00
2019-02-15T06:12:35.204Z,10.47
2019-02-15T06:15:14.453Z,11.87
2019-02-15T06:17:33.097Z,11.33
2019-02-15T06:20:04.241Z,9.50
2019-02-15T06:22:32.355Z,8.53
2019-02-15T06:25:00.452Z,8.30
2019-02-15T06:27:28.526Z,12.60
2019-02-15T06:29:56.739Z,7.90
2019-02-15T06:32:24.860Z,7.53
2019-02-15T06:34:53.024Z,11.57
2019-02-15T06:37:22.283Z,9.57
2019-02-15T06:39:50.295Z,8.20
2019-02-15T06:42:18.324Z,8.77
2019-02-15T06:44:46.335Z,8.30
2019-02-15T06:47:14.423Z,7.60
2019-02-15T06:49:42.438Z,6.73
2019-02-15T06:52:10.555Z,6.47
2019-02-15T06:54:38.537Z,10.10
2019-02-15T06:57:06.482Z,8.67
2019-02-15T07:00:02.330Z,7.77
2019-02-15T07:02:54.799Z,6.17
2019-02-15T07:05:30.663Z,7.13
2019-02-15T07:07:58.694Z,7.90
2019-02-15T07:10:26.797Z,4.93
2019-02-15T07:12:54.834Z,8.17
2019-02-15T07:15:22.840Z,5.10
2019-02-15T07:17:50.795Z,6.23
2019-02-15T07:20:18.741Z,7.30
2019-02-15T07:22:47.130Z,5.40
2019-02-15T07:25:17.303Z,5.77
2019-02-15T07:27:45.071Z,6.70
2019-02-15T07:30:15.602Z,7.23
2019-02-15T07:32:43.773Z,4.80
2019-02-15T07:35:13.114Z,7.53
2019-02-15T07:37:41.483Z,6.90
2019-02-15T07:40:09.487Z,5.30
2019-02-15T07:42:37.536Z,7.70
2019-02-15T07:45:06.909Z,7.10
2019-02-15T07:47:34.935Z,4.53
2019-02-15T07:50:02.968Z,6.67
2019-02-15T07:52:30.991Z,4.37
2019-02-15T07:55:01.939Z,5.43
2019-02-15T07:57:30.463Z,4.57
2019-02-15T08:00:00.505Z,4.93
2019-02-15T08:02:28.204Z,3.10
2019-02-15T08:04:56.207Z,4.27
2019-02-15T08:07:24.328Z,4.67
2019-02-15T08:09:52.417Z,3.83
2019-02-15T08:12:20.371Z,3.73
2019-02-15T08:14:48.387Z,5.23
2019-02-15T08:17:16.445Z,4.13
2019-02-15T08:19:44.465Z,4.90
2019-02-15T08:22:14.967Z,3.80
2019-02-15T08:24:42.964Z,3.27
2019-02-15T08:27:10.932Z,4.67
2019-02-15T08:29:38.931Z,2.87
2019-02-15T08:32:06.887Z,5.07
2019-02-15T08:34:35.823Z,3.03
2019-02-15T08:37:03.835Z,4.73
2019-02-15T08:39:31.899Z,5.40
2019-02-15T08:42:03.795Z,3.23
2019-02-15T08:44:29.578Z,4.37
2019-02-15T08:46:57.610Z,3.43
2019-02-15T08:49:25.631Z,3.87
2019-02-15T08:51:53.695Z,3.03
2019-02-15T08:54:21.764Z,4.10
2019-02-15T08:56:49.763Z,2.80
2019-02-15T08:59:17.737Z,2.83
2019-02-15T09:02:00.250Z,3.53
2019-02-15T09:04:28.379Z,3.67
2019-02-15T09:06:56.424Z,3.47
2019-02-15T09:09:24.383Z,3.17
2019-02-15T09:11:52.330Z,3.07
2019-02-15T09:14:20.461Z,2.70
2019-02-15T09:16:48.569Z,3.57
2019-02-15T09:19:16.605Z,3.17
2019-02-15T09:21:45.492Z,3.70
2019-02-15T09:24:13.564Z,4.90
2019-02-15T09:26:41.673Z,3.67
2019-02-15T09:29:10.840Z,3.50
2019-02-15T09:31:38.871Z,3.90
2019-02-15T09:34:06.881Z,3.07
2019-02-15T09:36:34.985Z,4.07
2019-02-15T09:39:04.142Z,2.53
2019-02-15T09:41:32.190Z,2.73
2019-02-15T09:44:00.184Z,2.90
2019-02-15T09:46:28.184Z,2.20
2019-02-15T09:48:56.255Z,2.27
2019-02-15T09:51:24.244Z,1.73
2019-02-15T09:53:52.302Z,1.77
2019-02-15T09:56:20.309Z,2.07
2019-02-15T09:58:48.368Z,1.70
2019-02-15T10:01:16.411Z,1.90
2019-02-15T10:03:45.164Z,1.70
2019-02-15T10:06:13.233Z,1.50
2019-02-15T10:08:41.268Z,1.70
2019-02-15T10:11:09.760Z,1.50
2019-02-15T10:13:37.732Z,1.70
2019-02-15T10:16:05.757Z,1.97
2019-02-15T10:18:33.795Z,2.37
2019-02-15T10:21:01.767Z,1.50
2019-02-15T10:23:29.872Z,1.60
2019-02-15T10:25:57.938Z,1.57
2019-02-15T10:28:26.019Z,1.63
2019-02-15T10:30:54.152Z,2.03
2019-02-15T10:33:22.189Z,2.50
2019-02-15T10:35:50.262Z,1.50
2019-02-15T10:38:18.293Z,1.10
2019-02-15T10:40:47.187Z,2.23
2019-02-15T10:43:15.256Z,3.20
2019-02-15T10:45:43.215Z,1.47
2019-02-15T10:48:11.337Z,1.30
2019-02-15T10:50:39.300Z,1.50
2019-02-15T10:53:07.319Z,1.50
2019-02-15T10:55:35.377Z,1.73
2019-02-15T10:58:03.416Z,1.93
2019-02-15T11:00:31.936Z,1.50
2019-02-15T11:02:59.956Z,1.30
2019-02-15T11:05:27.911Z,1.30
2019-02-15T11:07:55.849Z,1.43
2019-02-15T11:10:23.946Z,1.30
2019-02-15T11:12:51.982Z,1.67
2019-02-15T11:15:20.466Z,1.50
2019-02-15T11:17:48.617Z,1.40
2019-02-15T11:20:16.676Z,2.00
2019-02-15T11:22:44.658Z,2.13
2019-02-15T11:25:12.299Z,1.50
2019-02-15T11:27:40.478Z,3.40
2019-02-15T11:30:10.048Z,1.37
2019-02-15T11:32:38.056Z,1.93
2019-02-15T11:35:06.698Z,1.47
2019-02-15T11:37:34.703Z,1.50
2019-02-15T11:40:02.632Z,2.37
2019-02-15T11:42:30.688Z,2.27
2019-02-15T11:44:58.716Z,2.30
2019-02-15T11:47:26.832Z,2.30
2019-02-15T11:49:54.984Z,2.20
2019-02-15T11:52:24.134Z,2.53
2019-02-15T11:54:52.139Z,2.70
2019-02-15T11:57:20.464Z,1.43
2019-02-15T11:59:48.504Z,1.37
2019-02-15T12:02:16.532Z,2.07
2019-02-15T12:04:44.619Z,1.23
2019-02-15T12:07:12.656Z,3.00
2019-02-15T12:09:41.781Z,1.80
2019-02-15T12:12:10.999Z,1.70
2019-02-15T12:14:39.082Z,1.20
2019-02-15T12:17:07.164Z,1.63
2019-02-15T12:19:35.672Z,1.40
2019-02-15T12:22:03.803Z,2.70
2019-02-15T12:24:31.736Z,1.53
2019-02-15T12:26:59.671Z,3.07
2019-02-15T12:29:27.675Z,1.20
2019-02-15T12:31:55.669Z,1.40
2019-02-15T12:34:23.826Z,1.70
2019-02-15T12:36:51.994Z,1.70
2019-02-15T12:39:20.059Z,1.43
2019-02-15T12:41:48.162Z,1.93
2019-02-15T12:44:16.190Z,1.30
2019-02-15T12:46:44.252Z,2.03
2019-02-15T12:49:12.198Z,2.87
2019-02-15T12:51:40.213Z,1.30
2019-02-15T12:54:08.363Z,1.93
2019-02-15T12:56:39.806Z,1.73
2019-02-15T12:59:07.900Z,1.70
2019-02-15T13:01:35.971Z,2.90
2019-02-15T13:04:03.972Z,2.37
2019-02-15T13:06:32.280Z,1.77
2019-02-15T13:09:00.308Z,2.40
2019-02-15T13:11:28.368Z,1.70
2019-02-15T13:13:56.320Z,1.43
2019-02-15T13:16:24.337Z,2.30
2019-02-15T13:18:52.352Z,1.90
2019-02-15T13:21:20.788Z,2.13
2019-02-15T13:23:51.760Z,1.90
2019-02-15T13:26:19.826Z,2.27
2019-02-15T13:28:48.095Z,4.00
2019-02-15T13:31:16.101Z,1.60
2019-02-15T13:33:44.086Z,1.47
2019-02-15T13:36:12.040Z,1.50
2019-02-15T13:38:40.060Z,1.53
2019-02-15T13:41:08.043Z,2.70
2019-02-15T13:43:36.043Z,1.70
2019-02-15T13:46:04.028Z,3.70
2019-02-15T13:48:32.118Z,3.20
2019-02-15T13:51:00.172Z,2.40
2019-02-15T13:53:28.335Z,2.20
2019-02-15T13:55:56.301Z,1.70
2019-02-15T13:58:24.362Z,1.30
2019-02-15T14:00:52.338Z,2.17
2019-02-15T14:03:20.632Z,2.60
2019-02-15T14:05:48.688Z,3.00
2019-02-15T14:08:16.664Z,1.53
2019-02-15T14:10:44.620Z,1.60
2019-02-15T14:13:12.546Z,2.77
2019-02-15T14:15:43.511Z,1.60
2019-02-15T14:18:11.532Z,1.40
2019-02-15T14:20:39.556Z,1.87
2019-02-15T14:23:07.571Z,4.60
2019-02-15T14:25:35.587Z,1.70
2019-02-15T14:28:03.585Z,1.60
2019-02-15T14:30:31.582Z,2.07
2019-02-15T14:32:59.524Z,2.60
2019-02-15T14:35:27.458Z,2.33
2019-02-15T14:37:55.430Z,1.90
2019-02-15T14:40:23.421Z,2.90
2019-02-15T14:42:51.404Z,2.27
2019-02-15T14:45:20.191Z,2.37
2019-02-15T14:47:54.857Z,5.03
2019-02-15T14:50:17.817Z,2.50
2019-02-15T14:52:45.940Z,2.43
2019-02-15T14:55:14.014Z,4.00
2019-02-15T14:57:42.037Z,5.77
2019-02-15T15:00:10.459Z,3.47
2019-02-15T15:02:38.429Z,4.67
2019-02-15T15:05:06.628Z,3.10
2019-02-15T15:07:34.573Z,5.00
2019-02-15T15:10:02.471Z,5.67
2019-02-15T15:12:30.538Z,3.97
2019-02-15T15:14:58.623Z,4.00
2019-02-15T15:17:29.487Z,6.70
2019-02-15T15:19:57.587Z,2.70
2019-02-15T15:22:25.638Z,5.13
2019-02-15T15:24:53.725Z,6.07
2019-02-15T15:27:21.840Z,6.43
2019-02-15T15:29:50.637Z,5.17
2019-02-15T15:32:18.815Z,3.90
2019-02-15T15:34:46.766Z,5.63
2019-02-15T15:37:16.771Z,5.30
2019-02-15T15:39:44.541Z,3.73
2019-02-15T15:42:12.645Z,4.30
2019-02-15T15:44:40.680Z,7.67
2019-02-15T15:47:08.939Z,6.87
2019-02-15T15:49:36.862Z,8.13
2019-02-15T15:52:04.924Z,6.73
2019-02-15T15:54:32.946Z,6.27
2019-02-15T15:57:00.870Z,7.53
2019-02-15T15:59:28.850Z,4.57
2019-02-15T16:01:56.844Z,5.93
2019-02-15T16:04:24.768Z,3.57
2019-02-15T16:06:52.707Z,6.57
2019-02-15T16:09:20.836Z,5.40
2019-02-15T16:11:48.800Z,8.10
2019-02-15T16:14:17.174Z,9.87
2019-02-15T16:16:45.351Z,3.43
2019-02-15T16:19:13.340Z,5.77
2019-02-15T16:21:41.255Z,5.07
2019-02-15T16:24:12.703Z,9.43
2019-02-15T16:26:38.959Z,4.77
2019-02-15T16:29:07.033Z,5.30
2019-02-15T16:31:35.139Z,6.47
2019-02-15T16:34:03.114Z,7.07
2019-02-15T16:36:31.129Z,3.97
2019-02-15T16:38:59.247Z,5.67
2019-02-15T16:41:27.256Z,5.57
2019-02-15T16:43:55.360Z,6.27
2019-02-15T16:46:23.291Z,6.10
2019-02-15T16:48:51.235Z,6.63
2019-02-15T16:51:19.240Z,6.87
2019-02-15T16:53:47.188Z,7.27
2019-02-15T16:56:15.198Z,7.87
2019-02-15T16:58:43.129Z,4.43
2019-02-15T17:01:11.157Z,7.73
2019-02-15T17:03:39.199Z,5.27
2019-02-15T17:06:07.195Z,6.03
2019-02-15T17:08:38.080Z,9.40
2019-02-15T17:11:06.197Z,5.50
2019-02-15T17:13:34.779Z,5.30
2019-02-15T17:16:02.863Z,8.27
2019-02-15T17:18:30.880Z,5.57
2019-02-15T17:20:58.916Z,5.20
2019-02-15T17:23:26.917Z,6.77
2019-02-15T17:25:54.899Z,8.27
2019-02-15T17:28:22.928Z,6.07
2019-02-15T17:30:50.903Z,7.33
2019-02-15T17:33:18.863Z,11.10
2019-02-15T17:35:46.902Z,4.07
2019-02-15T17:38:14.918Z,8.73
2019-02-15T17:40:43.287Z,8.87
2019-02-15T17:43:11.217Z,6.93
2019-02-15T17:45:39.223Z,9.63
2019-02-15T17:48:07.219Z,5.70
2019-02-15T17:50:35.397Z,8.00
2019-02-15T17:53:03.607Z,7.20
2019-02-15T17:55:31.613Z,5.93
2019-02-15T17:57:59.604Z,11.03
2019-02-15T18:00:30.061Z,5.23
2019-02-15T18:02:58.028Z,5.03
2019-02-15T18:05:26.140Z,6.57
2019-02-15T18:07:54.114Z,5.10
2019-02-15T18:10:22.140Z,5.57
2019-02-15T18:12:50.163Z,7.47
2019-02-15T18:15:18.209Z,6.47
2019-02-15T18:17:46.207Z,6.90
2019-02-15T18:20:14.221Z,5.70
2019-02-15T18:22:42.154Z,6.27
2019-02-15T18:25:10.203Z,7.43
2019-02-15T18:27:38.217Z,5.13
2019-02-15T18:30:07.025Z,7.50
2019-02-15T18:32:35.071Z,10.20
2019-02-15T18:35:03.117Z,3.80
2019-02-15T18:37:31.252Z,6.73
2019-02-15T18:39:59.280Z,4.67
2019-02-15T18:42:27.393Z,7.53
2019-02-15T18:44:55.360Z,8.43
2019-02-15T18:47:23.376Z,5.80
2019-02-15T18:49:51.369Z,7.33
2019-02-15T18:52:19.292Z,9.40
2019-02-15T18:54:47.341Z,8.40
2019-02-15T18:57:15.415Z,5.20
2019-02-15T18:59:43.383Z,6.70
2019-02-15T19:02:11.334Z,7.13
2019-02-15T19:04:39.317Z,5.00
2019-02-15T19:07:07.447Z,5.23
2019-02-15T19:09:35.501Z,6.23
2019-02-15T19:12:03.545Z,5.63
2019-02-15T19:14:31.657Z,5.90
2019-02-15T19:16:59.721Z,6.40
2019-02-15T19:19:29.276Z,7.43
2019-02-15T19:21:57.451Z,4.63
2019-02-15T19:24:25.517Z,4.93
2019-02-15T19:26:53.557Z,6.07
2019-02-15T19:29:21.645Z,5.33
2019-02-15T19:31:49.785Z,4.23
2019-02-15T19:34:17.737Z,5.63
2019-02-15T19:36:45.680Z,4.60
2019-02-15T19:39:13.631Z,8.77
2019-02-15T19:41:41.680Z,5.10
2019-02-15T19:44:09.651Z,4.93
2019-02-15T19:46:37.719Z,7.87
2019-02-15T19:49:06.094Z,4.73
2019-02-15T19:51:35.877Z,9.63
2019-02-15T19:54:03.677Z,4.57
2019-02-15T19:56:31.708Z,8.07
2019-02-15T19:58:59.736Z,6.47
2019-02-15T20:01:28.032Z,5.87
2019-02-15T20:03:56.046Z,4.50
2019-02-15T20:06:24.022Z,4.90
2019-02-15T20:08:52.060Z,5.53
2019-02-15T20:11:20.005Z,6.43
2019-02-15T20:13:48.054Z,9.07
2019-02-15T20:16:16.078Z,6.70
2019-02-15T20:18:44.222Z,7.70
2019-02-15T20:21:12.286Z,7.40
2019-02-15T20:23:40.277Z,5.37
2019-02-15T20:26:08.302Z,5.43
2019-02-15T20:28:36.312Z,8.27
2019-02-15T20:31:04.292Z,6.33
2019-02-15T20:33:32.305Z,6.33
2019-02-15T20:36:00.410Z,7.23
2019-02-15T20:38:28.409Z,5.60
2019-02-15T20:40:56.400Z,6.23
2019-02-15T20:43:24.522Z,10.03
2019-02-15T20:45:52.524Z,6.23
2019-02-15T20:48:20.588Z,6.70
2019-02-15T20:50:48.608Z,8.53
2019-02-15T20:53:16.976Z,5.33
2019-02-15T20:55:45.057Z,5.60
2019-02-15T20:58:13.017Z,7.00
2019-02-15T21:00:41.026Z,7.67
2019-02-15T21:03:09.330Z,5.90
2019-02-15T21:05:38.989Z,6.67
2019-02-15T21:08:07.043Z,7.47
2019-02-15T21:10:35.179Z,6.07
2019-02-15T21:13:03.232Z,5.13
2019-02-15T21:15:31.480Z,6.87
2019-02-15T21:17:59.454Z,5.20
2019-02-15T21:20:27.507Z,8.33
2019-02-15T21:22:55.503Z,6.67
2019-02-15T21:25:23.495Z,6.53
2019-02-15T21:27:51.496Z,6.27
2019-02-15T21:30:19.617Z,5.80
2019-02-15T21:32:47.584Z,5.40
2019-02-15T21:35:15.691Z,7.90
2019-02-15T21:37:43.828Z,7.73
2019-02-15T21:40:12.239Z,7.67
2019-02-15T21:42:40.296Z,6.77
2019-02-15T21:45:08.677Z,5.93
2019-02-15T21:47:36.695Z,6.10
2019-02-15T21:50:04.833Z,7.57
2019-02-15T21:52:32.861Z,5.90
2019-02-15T21:55:00.844Z,6.20
2019-02-15T21:57:28.880Z,5.97
2019-02-15T21:59:56.932Z,6.73
2019-02-15T22:02:24.875Z,5.90
2019-02-15T22:04:52.821Z,5.13
2019-02-15T22:07:20.879Z,5.33
2019-02-15T22:09:48.924Z,5.47
2019-02-15T22:12:16.983Z,7.10
2019-02-15T22:14:46.818Z,5.10
2019-02-15T22:17:15.077Z,6.23
2019-02-15T22:19:43.136Z,6.33
2019-02-15T22:22:11.141Z,5.70
2019-02-15T22:24:39.411Z,6.33
2019-02-15T22:27:07.544Z,7.70
2019-02-15T22:29:36.708Z,6.10
2019-02-15T22:32:05.292Z,4.60
2019-02-15T22:34:33.465Z,7.13
2019-02-15T22:37:01.505Z,5.27
2019-02-15T22:39:29.487Z,4.47
2019-02-15T22:41:57.442Z,5.63
2019-02-15T22:44:25.460Z,5.43
2019-02-15T22:46:53.480Z,5.13
2019-02-15T22:49:21.547Z,6.30
2019-02-15T22:51:49.612Z,6.43
2019-02-15T22:54:17.571Z,5.03
2019-02-15T22:56:45.696Z,4.60
2019-02-15T22:59:13.693Z,5.87
2019-02-15T23:01:42.217Z,5.33
2019-02-15T23:04:10.563Z,4.73
2019-02-15T23:06:38.577Z,5.73
2019-02-15T23:09:09.152Z,4.93
2019-02-15T23:11:37.283Z,6.77
2019-02-15T23:14:05.258Z,5.70
2019-02-15T23:16:34.680Z,5.43
2019-02-15T23:19:03.546Z,5.53
2019-02-15T23:21:31.654Z,5.17
2019-02-15T23:23:59.824Z,4.63
2019-02-15T23:26:27.912Z,7.07
2019-02-15T23:28:55.916Z,7.90
2019-02-15T23:31:26.560Z,5.00
2019-02-15T23:33:54.856Z,6.83
2019-02-15T23:36:22.877Z,6.00
2019-02-15T23:38:51.170Z,5.23
2019-02-15T23:41:24.004Z,5.93
2019-02-15T23:43:53.475Z,4.77
2019-02-15T23:46:21.602Z,6.13
2019-02-15T23:48:49.584Z,5.87
2019-02-15T23:51:17.654Z,5.60
2019-02-15T23:53:45.708Z,7.43
2019-02-15T23:56:13.860Z,4.17
2019-02-15T23:58:45.765Z,5.07
